sensor_id;sensor_type;location;lat;lon;timestamp;pressure;altitude;pressure_sealevel;temperature;humidity
55191;BME280;41070;50.360;18.742;2023-02-13T00:02:24;100672.95;;;0.77;96.48
55191;BME280;41070;50.360;18.742;2023-02-13T00:04:51;100664.98;;;0.82;96.28
55191;BME280;41070;50.360;18.742;2023-02-13T00:07:18;100657.98;;;0.87;96.74
55191;BME280;41070;50.360;18.742;2023-02-13T00:09:44;100656.95;;;0.94;97.08
55191;BME280;41070;50.360;18.742;2023-02-13T00:12:10;100660.30;;;1.03;96.98
55191;BME280;41070;50.360;18.742;2023-02-13T00:14:38;100660.15;;;1.07;97.05
55191;BME280;41070;50.360;18.742;2023-02-13T00:17:05;100660.66;;;1.07;96.40
55191;BME280;41070;50.360;18.742;2023-02-13T00:19:32;100661.20;;;1.06;96.13
55191;BME280;41070;50.360;18.742;2023-02-13T00:22:10;100659.05;;;1.05;96.15
55191;BME280;41070;50.360;18.742;2023-02-13T00:24:44;100654.46;;;1.08;96.35
55191;BME280;41070;50.360;18.742;2023-02-13T00:30:38;100650.45;;;1.03;96.04
55191;BME280;41070;50.360;18.742;2023-02-13T00:33:05;100650.02;;;1.01;96.34
55191;BME280;41070;50.360;18.742;2023-02-13T00:35:31;100657.05;;;0.99;95.94
55191;BME280;41070;50.360;18.742;2023-02-13T00:37:58;100659.95;;;0.92;95.47
55191;BME280;41070;50.360;18.742;2023-02-13T00:40:25;100661.59;;;0.83;95.51
55191;BME280;41070;50.360;18.742;2023-02-13T00:42:51;100658.92;;;0.80;96.01
55191;BME280;41070;50.360;18.742;2023-02-13T00:45:17;100653.67;;;0.81;96.46
55191;BME280;41070;50.360;18.742;2023-02-13T00:47:44;100653.08;;;0.85;96.58
55191;BME280;41070;50.360;18.742;2023-02-13T00:50:10;100656.51;;;0.89;96.60
55191;BME280;41070;50.360;18.742;2023-02-13T00:52:38;100651.09;;;0.88;96.46
55191;BME280;41070;50.360;18.742;2023-02-13T00:55:05;100653.61;;;0.85;95.98
55191;BME280;41070;50.360;18.742;2023-02-13T00:57:31;100660.12;;;0.84;96.26
55191;BME280;41070;50.360;18.742;2023-02-13T00:59:58;100657.00;;;0.81;96.19
55191;BME280;41070;50.360;18.742;2023-02-13T01:02:24;100657.50;;;0.82;96.82
55191;BME280;41070;50.360;18.742;2023-02-13T01:04:51;100647.40;;;0.85;96.90
55191;BME280;41070;50.360;18.742;2023-02-13T01:07:17;100648.00;;;0.88;96.98
55191;BME280;41070;50.360;18.742;2023-02-13T01:09:45;100645.27;;;0.91;97.23
55191;BME280;41070;50.360;18.742;2023-02-13T01:12:12;100644.66;;;0.96;97.87
55191;BME280;41070;50.360;18.742;2023-02-13T01:14:38;100644.55;;;1.01;97.47
55191;BME280;41070;50.360;18.742;2023-02-13T01:17:05;100643.17;;;1.01;97.24
55191;BME280;41070;50.360;18.742;2023-02-13T01:19:31;100638.75;;;1.03;97.81
55191;BME280;41070;50.360;18.742;2023-02-13T01:21:57;100637.71;;;1.05;97.16
55191;BME280;41070;50.360;18.742;2023-02-13T01:24:24;100640.71;;;1.07;97.45
55191;BME280;41070;50.360;18.742;2023-02-13T01:26:54;100633.42;;;1.12;97.87
55191;BME280;41070;50.360;18.742;2023-02-13T01:29:20;100637.02;;;1.13;97.33
55191;BME280;41070;50.360;18.742;2023-02-13T01:31:47;100634.37;;;1.13;97.26
55191;BME280;41070;50.360;18.742;2023-02-13T01:34:24;100632.69;;;1.15;97.21
55191;BME280;41070;50.360;18.742;2023-02-13T01:37:23;100628.66;;;1.16;97.63
55191;BME280;41070;50.360;18.742;2023-02-13T01:39:50;100625.30;;;1.17;97.30
55191;BME280;41070;50.360;18.742;2023-02-13T01:42:45;100625.41;;;1.17;97.48
55191;BME280;41070;50.360;18.742;2023-02-13T01:45:23;100627.04;;;1.17;97.09
55191;BME280;41070;50.360;18.742;2023-02-13T01:48:06;100627.52;;;1.17;97.31
55191;BME280;41070;50.360;18.742;2023-02-13T01:50:50;100627.77;;;1.19;97.68
55191;BME280;41070;50.360;18.742;2023-02-13T01:53:26;100623.09;;;1.22;97.65
55191;BME280;41070;50.360;18.742;2023-02-13T01:56:47;100620.63;;;1.24;97.69
55191;BME280;41070;50.360;18.742;2023-02-13T01:59:19;100621.18;;;1.24;97.50
55191;BME280;41070;50.360;18.742;2023-02-13T02:01:48;100615.87;;;1.25;97.53
55191;BME280;41070;50.360;18.742;2023-02-13T02:04:22;100614.94;;;1.26;97.60
55191;BME280;41070;50.360;18.742;2023-02-13T02:06:53;100613.95;;;1.29;97.96
55191;BME280;41070;50.360;18.742;2023-02-13T02:09:26;100615.58;;;1.36;98.02
55191;BME280;41070;50.360;18.742;2023-02-13T02:12:06;100615.13;;;1.40;98.08
55191;BME280;41070;50.360;18.742;2023-02-13T02:14:36;100609.34;;;1.44;98.27
55191;BME280;41070;50.360;18.742;2023-02-13T02:17:25;100606.45;;;1.46;97.92
55191;BME280;41070;50.360;18.742;2023-02-13T02:20:08;100604.88;;;1.44;97.86
55191;BME280;41070;50.360;18.742;2023-02-13T02:25:46;100597.40;;;1.45;98.33
55191;BME280;41070;50.360;18.742;2023-02-13T02:28:19;100593.52;;;1.46;98.08
55191;BME280;41070;50.360;18.742;2023-02-13T02:36:43;100592.32;;;1.47;97.95
55191;BME280;41070;50.360;18.742;2023-02-13T02:39:25;100594.02;;;1.45;97.82
55191;BME280;41070;50.360;18.742;2023-02-13T02:45:32;100601.16;;;1.43;97.74
55191;BME280;41070;50.360;18.742;2023-02-13T02:48:11;100606.39;;;1.41;98.47
55191;BME280;41070;50.360;18.742;2023-02-13T02:53:59;100605.56;;;1.40;98.25
55191;BME280;41070;50.360;18.742;2023-02-13T02:56:56;100605.60;;;1.38;98.50
55191;BME280;41070;50.360;18.742;2023-02-13T02:59:43;100600.08;;;1.37;98.43
55191;BME280;41070;50.360;18.742;2023-02-13T03:02:40;100597.30;;;1.35;98.52
55191;BME280;41070;50.360;18.742;2023-02-13T03:05:30;100603.10;;;1.35;98.75
55191;BME280;41070;50.360;18.742;2023-02-13T03:08:27;100604.38;;;1.35;98.94
55191;BME280;41070;50.360;18.742;2023-02-13T03:11:14;100607.22;;;1.38;99.23
55191;BME280;41070;50.360;18.742;2023-02-13T03:14:00;100613.36;;;1.39;99.55
55191;BME280;41070;50.360;18.742;2023-02-13T03:16:58;100611.83;;;1.39;99.37
55191;BME280;41070;50.360;18.742;2023-02-13T03:26:53;100609.34;;;1.35;99.35
55191;BME280;41070;50.360;18.742;2023-02-13T03:29:46;100605.76;;;1.36;99.44
55191;BME280;41070;50.360;18.742;2023-02-13T03:39:13;100615.61;;;1.34;99.63
55191;BME280;41070;50.360;18.742;2023-02-13T03:47:15;100613.54;;;1.32;99.88
55191;BME280;41070;50.360;18.742;2023-02-13T03:49:47;100606.81;;;1.33;99.85
55191;BME280;41070;50.360;18.742;2023-02-13T03:56:32;100597.41;;;1.41;99.96
55191;BME280;41070;50.360;18.742;2023-02-13T03:59:39;100600.02;;;1.44;100.00
55191;BME280;41070;50.360;18.742;2023-02-13T04:02:28;100603.34;;;1.44;99.93
55191;BME280;41070;50.360;18.742;2023-02-13T04:05:23;100600.98;;;1.45;99.95
55191;BME280;41070;50.360;18.742;2023-02-13T04:08:08;100600.86;;;1.46;100.00
55191;BME280;41070;50.360;18.742;2023-02-13T04:10:45;100599.29;;;1.47;99.95
55191;BME280;41070;50.360;18.742;2023-02-13T04:17:18;100600.44;;;1.49;99.89
55191;BME280;41070;50.360;18.742;2023-02-13T04:19:48;100596.31;;;1.48;99.91
55191;BME280;41070;50.360;18.742;2023-02-13T04:22:16;100597.96;;;1.47;99.91
55191;BME280;41070;50.360;18.742;2023-02-13T04:24:58;100598.80;;;1.46;99.94
55191;BME280;41070;50.360;18.742;2023-02-13T04:27:39;100597.52;;;1.44;100.00
55191;BME280;41070;50.360;18.742;2023-02-13T04:30:07;100593.29;;;1.43;99.98
55191;BME280;41070;50.360;18.742;2023-02-13T04:32:39;100591.27;;;1.42;100.00
55191;BME280;41070;50.360;18.742;2023-02-13T04:35:06;100594.33;;;1.42;100.00
55191;BME280;41070;50.360;18.742;2023-02-13T04:37:32;100589.19;;;1.41;100.00
55191;BME280;41070;50.360;18.742;2023-02-13T04:40:15;100591.79;;;1.41;100.00
55191;BME280;41070;50.360;18.742;2023-02-13T04:42:46;100596.00;;;1.41;100.00
55191;BME280;41070;50.360;18.742;2023-02-13T04:45:17;100596.55;;;1.42;100.00
55191;BME280;41070;50.360;18.742;2023-02-13T04:47:56;100599.05;;;1.43;100.00
55191;BME280;41070;50.360;18.742;2023-02-13T04:50:24;100601.73;;;1.43;100.00
55191;BME280;41070;50.360;18.742;2023-02-13T04:52:53;100605.58;;;1.42;100.00
55191;BME280;41070;50.360;18.742;2023-02-13T04:55:22;100598.91;;;1.42;100.00
55191;BME280;41070;50.360;18.742;2023-02-13T04:57:53;100599.89;;;1.41;100.00
55191;BME280;41070;50.360;18.742;2023-02-13T05:00:25;100601.75;;;1.39;100.00
55191;BME280;41070;50.360;18.742;2023-02-13T05:02:52;100598.55;;;1.39;100.00
55191;BME280;41070;50.360;18.742;2023-02-13T05:05:20;100597.01;;;1.39;100.00
55191;BME280;41070;50.360;18.742;2023-02-13T05:07:48;100594.31;;;1.38;100.00
55191;BME280;41070;50.360;18.742;2023-02-13T05:10:15;100586.10;;;1.39;100.00
55191;BME280;41070;50.360;18.742;2023-02-13T05:12:42;100582.55;;;1.42;100.00
55191;BME280;41070;50.360;18.742;2023-02-13T05:15:13;100577.91;;;1.45;100.00
55191;BME280;41070;50.360;18.742;2023-02-13T05:17:42;100578.38;;;1.46;100.00
55191;BME280;41070;50.360;18.742;2023-02-13T05:20:09;100572.95;;;1.47;100.00
55191;BME280;41070;50.360;18.742;2023-02-13T05:22:36;100578.17;;;1.50;100.00
55191;BME280;41070;50.360;18.742;2023-02-13T05:25:27;100581.82;;;1.52;100.00
55191;BME280;41070;50.360;18.742;2023-02-13T05:27:53;100585.35;;;1.52;100.00
55191;BME280;41070;50.360;18.742;2023-02-13T05:30:20;100583.48;;;1.49;100.00
55191;BME280;41070;50.360;18.742;2023-02-13T05:32:48;100587.27;;;1.43;100.00
55191;BME280;41070;50.360;18.742;2023-02-13T05:35:15;100589.24;;;1.33;99.73
55191;BME280;41070;50.360;18.742;2023-02-13T05:37:42;100588.30;;;1.29;99.99
55191;BME280;41070;50.360;18.742;2023-02-13T05:40:10;100600.73;;;1.25;99.98
55191;BME280;41070;50.360;18.742;2023-02-13T05:42:39;100599.39;;;1.20;99.97
55191;BME280;41070;50.360;18.742;2023-02-13T05:45:18;100594.73;;;1.15;100.00
55191;BME280;41070;50.360;18.742;2023-02-13T05:47:45;100592.90;;;1.14;100.00
55191;BME280;41070;50.360;18.742;2023-02-13T05:50:11;100589.64;;;1.05;100.00
55191;BME280;41070;50.360;18.742;2023-02-13T05:52:38;100591.23;;;1.00;99.99
55191;BME280;41070;50.360;18.742;2023-02-13T05:55:05;100593.30;;;0.94;100.00
55191;BME280;41070;50.360;18.742;2023-02-13T05:57:31;100598.88;;;0.91;100.00
55191;BME280;41070;50.360;18.742;2023-02-13T06:00:02;100601.56;;;0.91;100.00
55191;BME280;41070;50.360;18.742;2023-02-13T06:02:29;100602.71;;;0.88;100.00
55191;BME280;41070;50.360;18.742;2023-02-13T06:04:59;100612.42;;;0.87;99.93
55191;BME280;41070;50.360;18.742;2023-02-13T06:07:25;100608.77;;;0.83;99.82
55191;BME280;41070;50.360;18.742;2023-02-13T06:09:51;100611.71;;;0.81;99.96
55191;BME280;41070;50.360;18.742;2023-02-13T06:12:18;100615.37;;;0.72;99.50
55191;BME280;41070;50.360;18.742;2023-02-13T06:14:44;100609.35;;;0.66;99.89
55191;BME280;41070;50.360;18.742;2023-02-13T06:17:11;100610.95;;;0.62;99.54
55191;BME280;41070;50.360;18.742;2023-02-13T06:19:37;100610.72;;;0.56;99.59
55191;BME280;41070;50.360;18.742;2023-02-13T06:22:04;100612.04;;;0.54;99.85
55191;BME280;41070;50.360;18.742;2023-02-13T06:24:30;100613.68;;;0.48;99.43
55191;BME280;41070;50.360;18.742;2023-02-13T06:26:56;100616.74;;;0.41;99.08
55191;BME280;41070;50.360;18.742;2023-02-13T06:29:23;100611.66;;;0.36;99.52
55191;BME280;41070;50.360;18.742;2023-02-13T06:31:49;100612.38;;;0.37;99.80
55191;BME280;41070;50.360;18.742;2023-02-13T06:34:16;100609.61;;;0.37;99.83
55191;BME280;41070;50.360;18.742;2023-02-13T06:36:42;100605.16;;;0.38;99.82
55191;BME280;41070;50.360;18.742;2023-02-13T06:39:09;100611.20;;;0.34;99.83
55191;BME280;41070;50.360;18.742;2023-02-13T06:41:35;100615.13;;;0.32;100.00
55191;BME280;41070;50.360;18.742;2023-02-13T06:44:01;100616.56;;;0.33;99.91
55191;BME280;41070;50.360;18.742;2023-02-13T06:46:28;100620.41;;;0.37;100.00
55191;BME280;41070;50.360;18.742;2023-02-13T06:48:54;100620.92;;;0.41;100.00
55191;BME280;41070;50.360;18.742;2023-02-13T06:51:20;100617.59;;;0.44;100.00
55191;BME280;41070;50.360;18.742;2023-02-13T06:53:46;100615.88;;;0.48;100.00
55191;BME280;41070;50.360;18.742;2023-02-13T06:56:13;100614.27;;;0.51;100.00
55191;BME280;41070;50.360;18.742;2023-02-13T06:58:39;100619.18;;;0.57;100.00
55191;BME280;41070;50.360;18.742;2023-02-13T07:01:05;100624.45;;;0.62;100.00
55191;BME280;41070;50.360;18.742;2023-02-13T07:03:31;100623.80;;;0.68;100.00
55191;BME280;41070;50.360;18.742;2023-02-13T07:05:58;100624.21;;;0.74;100.00
55191;BME280;41070;50.360;18.742;2023-02-13T07:08:24;100624.83;;;0.80;100.00
55191;BME280;41070;50.360;18.742;2023-02-13T07:10:50;100626.54;;;0.84;100.00
55191;BME280;41070;50.360;18.742;2023-02-13T07:13:17;100624.20;;;0.91;100.00
55191;BME280;41070;50.360;18.742;2023-02-13T07:15:43;100621.34;;;1.01;100.00
55191;BME280;41070;50.360;18.742;2023-02-13T07:18:09;100624.02;;;1.12;100.00
55191;BME280;41070;50.360;18.742;2023-02-13T07:20:35;100619.88;;;1.25;100.00
55191;BME280;41070;50.360;18.742;2023-02-13T07:23:04;100620.52;;;1.38;100.00
55191;BME280;41070;50.360;18.742;2023-02-13T07:25:31;100614.38;;;1.50;100.00
55191;BME280;41070;50.360;18.742;2023-02-13T07:28:04;100612.46;;;1.59;100.00
55191;BME280;41070;50.360;18.742;2023-02-13T07:30:33;100615.14;;;1.69;100.00
55191;BME280;41070;50.360;18.742;2023-02-13T07:33:01;100615.40;;;1.77;100.00
55191;BME280;41070;50.360;18.742;2023-02-13T07:35:28;100617.73;;;1.82;100.00
55191;BME280;41070;50.360;18.742;2023-02-13T07:37:54;100623.54;;;1.88;100.00
55191;BME280;41070;50.360;18.742;2023-02-13T07:40:20;100619.52;;;1.96;100.00
55191;BME280;41070;50.360;18.742;2023-02-13T07:42:47;100613.13;;;2.02;100.00
55191;BME280;41070;50.360;18.742;2023-02-13T07:45:13;100608.91;;;2.08;100.00
55191;BME280;41070;50.360;18.742;2023-02-13T07:47:41;100613.31;;;2.09;99.96
55191;BME280;41070;50.360;18.742;2023-02-13T07:50:08;100609.77;;;2.11;100.00
55191;BME280;41070;50.360;18.742;2023-02-13T07:52:35;100606.05;;;2.16;100.00
55191;BME280;41070;50.360;18.742;2023-02-13T07:55:03;100607.10;;;2.29;100.00
55191;BME280;41070;50.360;18.742;2023-02-13T07:57:29;100611.64;;;2.40;100.00
55191;BME280;41070;50.360;18.742;2023-02-13T07:59:56;100610.70;;;2.48;100.00
55191;BME280;41070;50.360;18.742;2023-02-13T08:02:23;100610.58;;;2.53;100.00
55191;BME280;41070;50.360;18.742;2023-02-13T08:04:49;100611.35;;;2.54;99.87
55191;BME280;41070;50.360;18.742;2023-02-13T08:07:16;100610.45;;;2.57;99.92
55191;BME280;41070;50.360;18.742;2023-02-13T08:09:45;100611.48;;;2.62;99.95
55191;BME280;41070;50.360;18.742;2023-02-13T08:12:30;100611.60;;;2.67;99.95
55191;BME280;41070;50.360;18.742;2023-02-13T08:14:57;100610.52;;;2.68;99.83
55191;BME280;41070;50.360;18.742;2023-02-13T08:17:23;100613.52;;;2.71;99.82
55191;BME280;41070;50.360;18.742;2023-02-13T08:19:49;100613.60;;;2.76;99.99
55191;BME280;41070;50.360;18.742;2023-02-13T08:22:16;100608.48;;;2.81;100.00
55191;BME280;41070;50.360;18.742;2023-02-13T08:24:42;100611.96;;;2.87;100.00
55191;BME280;41070;50.360;18.742;2023-02-13T08:27:13;100606.02;;;2.92;100.00
55191;BME280;41070;50.360;18.742;2023-02-13T08:29:39;100615.61;;;2.98;100.00
55191;BME280;41070;50.360;18.742;2023-02-13T08:32:06;100621.08;;;3.02;100.00
55191;BME280;41070;50.360;18.742;2023-02-13T08:34:33;100617.55;;;3.04;99.93
55191;BME280;41070;50.360;18.742;2023-02-13T08:37:00;100617.80;;;3.10;100.00
55191;BME280;41070;50.360;18.742;2023-02-13T08:39:27;100613.71;;;3.16;100.00
55191;BME280;41070;50.360;18.742;2023-02-13T08:41:54;100614.88;;;3.20;99.92
55191;BME280;41070;50.360;18.742;2023-02-13T08:44:20;100620.30;;;3.18;99.68
55191;BME280;41070;50.360;18.742;2023-02-13T08:46:46;100618.09;;;3.12;99.66
55191;BME280;41070;50.360;18.742;2023-02-13T08:49:13;100617.34;;;3.09;99.77
55191;BME280;41070;50.360;18.742;2023-02-13T08:51:39;100616.70;;;3.06;99.86
55191;BME280;41070;50.360;18.742;2023-02-13T08:54:05;100611.30;;;3.06;99.98
55191;BME280;41070;50.360;18.742;2023-02-13T08:56:31;100612.65;;;3.05;99.97
55191;BME280;41070;50.360;18.742;2023-02-13T08:58:57;100613.67;;;3.03;99.95
55191;BME280;41070;50.360;18.742;2023-02-13T09:01:24;100614.17;;;3.01;99.99
55191;BME280;41070;50.360;18.742;2023-02-13T09:03:50;100613.89;;;3.00;99.97
55191;BME280;41070;50.360;18.742;2023-02-13T09:06:16;100611.61;;;2.99;100.00
55191;BME280;41070;50.360;18.742;2023-02-13T09:08:43;100615.95;;;3.02;99.98
55191;BME280;41070;50.360;18.742;2023-02-13T09:11:09;100616.01;;;3.04;100.00
55191;BME280;41070;50.360;18.742;2023-02-13T09:13:35;100618.88;;;3.08;100.00
55191;BME280;41070;50.360;18.742;2023-02-13T09:16:04;100618.06;;;3.10;100.00
55191;BME280;41070;50.360;18.742;2023-02-13T09:18:31;100620.43;;;3.09;100.00
55191;BME280;41070;50.360;18.742;2023-02-13T09:21:03;100619.80;;;3.10;100.00
55191;BME280;41070;50.360;18.742;2023-02-13T09:23:35;100622.45;;;3.10;100.00
55191;BME280;41070;50.360;18.742;2023-02-13T09:26:03;100619.58;;;3.12;100.00
55191;BME280;41070;50.360;18.742;2023-02-13T09:28:31;100620.13;;;3.17;100.00
55191;BME280;41070;50.360;18.742;2023-02-13T09:30:57;100619.36;;;3.24;100.00
55191;BME280;41070;50.360;18.742;2023-02-13T09:33:24;100615.77;;;3.31;100.00
55191;BME280;41070;50.360;18.742;2023-02-13T09:35:51;100619.17;;;3.37;100.00
55191;BME280;41070;50.360;18.742;2023-02-13T09:38:17;100617.21;;;3.41;100.00
55191;BME280;41070;50.360;18.742;2023-02-13T09:40:53;100615.64;;;3.42;100.00
55191;BME280;41070;50.360;18.742;2023-02-13T09:43:39;100616.45;;;3.43;100.00
55191;BME280;41070;50.360;18.742;2023-02-13T09:46:11;100619.52;;;3.46;100.00
55191;BME280;41070;50.360;18.742;2023-02-13T09:48:40;100617.82;;;3.46;100.00
55191;BME280;41070;50.360;18.742;2023-02-13T09:51:14;100616.23;;;3.43;100.00
55191;BME280;41070;50.360;18.742;2023-02-13T09:53:47;100621.21;;;3.39;100.00
55191;BME280;41070;50.360;18.742;2023-02-13T09:56:16;100620.31;;;3.34;100.00
55191;BME280;41070;50.360;18.742;2023-02-13T09:58:48;100611.10;;;3.35;100.00
55191;BME280;41070;50.360;18.742;2023-02-13T10:01:27;100610.41;;;3.34;100.00
55191;BME280;41070;50.360;18.742;2023-02-13T10:06:44;100612.81;;;3.40;100.00
55191;BME280;41070;50.360;18.742;2023-02-13T10:15:06;100599.95;;;3.71;100.00
55191;BME280;41070;50.360;18.742;2023-02-13T10:17:47;100601.98;;;3.74;100.00
55191;BME280;41070;50.360;18.742;2023-02-13T10:20:27;100600.69;;;3.74;100.00
55191;BME280;41070;50.360;18.742;2023-02-13T10:23:03;100592.13;;;3.72;100.00
55191;BME280;41070;50.360;18.742;2023-02-13T10:25:45;100588.60;;;3.68;100.00
55191;BME280;41070;50.360;18.742;2023-02-13T10:28:18;100587.87;;;3.66;100.00
55191;BME280;41070;50.360;18.742;2023-02-13T10:30:55;100590.80;;;3.63;100.00
55191;BME280;41070;50.360;18.742;2023-02-13T10:33:26;100587.00;;;3.59;100.00
55191;BME280;41070;50.360;18.742;2023-02-13T10:36:05;100587.36;;;3.54;100.00
55191;BME280;41070;50.360;18.742;2023-02-13T10:38:35;100581.46;;;3.51;100.00
55191;BME280;41070;50.360;18.742;2023-02-13T10:44:16;100573.63;;;3.61;100.00
55191;BME280;41070;50.360;18.742;2023-02-13T10:47:14;100575.52;;;3.70;100.00
55191;BME280;41070;50.360;18.742;2023-02-13T10:55:27;100560.27;;;3.79;100.00
55191;BME280;41070;50.360;18.742;2023-02-13T10:58:17;100554.61;;;3.84;100.00
55191;BME280;41070;50.360;18.742;2023-02-13T11:03:25;100553.83;;;3.97;100.00
55191;BME280;41070;50.360;18.742;2023-02-13T11:05:53;100552.33;;;4.01;100.00
55191;BME280;41070;50.360;18.742;2023-02-13T11:10:49;100545.02;;;4.12;100.00
55191;BME280;41070;50.360;18.742;2023-02-13T11:16:05;100537.27;;;4.30;100.00
55191;BME280;41070;50.360;18.742;2023-02-13T11:18:49;100538.79;;;4.34;100.00
55191;BME280;41070;50.360;18.742;2023-02-13T11:21:20;100539.59;;;4.28;100.00
55191;BME280;41070;50.360;18.742;2023-02-13T11:23:52;100536.46;;;4.22;100.00
55191;BME280;41070;50.360;18.742;2023-02-13T11:26:25;100530.45;;;4.20;100.00
55191;BME280;41070;50.360;18.742;2023-02-13T11:28:56;100534.89;;;4.22;100.00
55191;BME280;41070;50.360;18.742;2023-02-13T11:33:55;100527.10;;;4.36;100.00
55191;BME280;41070;50.360;18.742;2023-02-13T11:36:32;100524.98;;;4.39;100.00
55191;BME280;41070;50.360;18.742;2023-02-13T11:39:03;100530.90;;;4.36;100.00
55191;BME280;41070;50.360;18.742;2023-02-13T11:41:35;100529.44;;;4.31;100.00
55191;BME280;41070;50.360;18.742;2023-02-13T11:44:25;100527.61;;;4.28;100.00
55191;BME280;41070;50.360;18.742;2023-02-13T11:46:53;100531.30;;;4.25;100.00
55191;BME280;41070;50.360;18.742;2023-02-13T11:49:23;100524.33;;;4.23;100.00
55191;BME280;41070;50.360;18.742;2023-02-13T11:51:58;100522.66;;;4.20;100.00
55191;BME280;41070;50.360;18.742;2023-02-13T11:57:22;100518.64;;;4.14;100.00
55191;BME280;41070;50.360;18.742;2023-02-13T11:59:52;100511.68;;;4.11;100.00
55191;BME280;41070;50.360;18.742;2023-02-13T12:02:44;100515.43;;;4.09;100.00
55191;BME280;41070;50.360;18.742;2023-02-13T12:05:14;100517.52;;;4.07;100.00
55191;BME280;41070;50.360;18.742;2023-02-13T12:07:42;100516.35;;;4.07;100.00
55191;BME280;41070;50.360;18.742;2023-02-13T12:10:16;100516.15;;;4.06;100.00
55191;BME280;41070;50.360;18.742;2023-02-13T12:15:36;100510.21;;;4.01;100.00
55191;BME280;41070;50.360;18.742;2023-02-13T12:18:09;100511.86;;;4.02;100.00
55191;BME280;41070;50.360;18.742;2023-02-13T12:26:43;100505.35;;;4.09;100.00
55191;BME280;41070;50.360;18.742;2023-02-13T12:32:44;100507.32;;;4.17;100.00
55191;BME280;41070;50.360;18.742;2023-02-13T12:56:38;100498.59;;;4.17;100.00
55191;BME280;41070;50.360;18.742;2023-02-13T13:09:55;100499.60;;;4.11;100.00
55191;BME280;41070;50.360;18.742;2023-02-13T13:12:42;100501.77;;;4.12;100.00
55191;BME280;41070;50.360;18.742;2023-02-13T13:18:23;100500.71;;;4.32;100.00
55191;BME280;41070;50.360;18.742;2023-02-13T13:21:16;100500.45;;;4.38;100.00
55191;BME280;41070;50.360;18.742;2023-02-13T13:23:49;100506.52;;;4.39;100.00
55191;BME280;41070;50.360;18.742;2023-02-13T13:28:55;100506.20;;;4.35;100.00
55191;BME280;41070;50.360;18.742;2023-02-13T13:31:24;100509.86;;;4.37;100.00
55191;BME280;41070;50.360;18.742;2023-02-13T13:33:53;100506.65;;;4.31;100.00
55191;BME280;41070;50.360;18.742;2023-02-13T13:37:02;100502.48;;;4.26;100.00
55191;BME280;41070;50.360;18.742;2023-02-13T13:42:15;100504.84;;;4.25;100.00
55191;BME280;41070;50.360;18.742;2023-02-13T13:45:07;100500.67;;;4.25;100.00
55191;BME280;41070;50.360;18.742;2023-02-13T13:47:50;100495.73;;;4.24;100.00
55191;BME280;41070;50.360;18.742;2023-02-13T13:50:27;100496.66;;;4.22;100.00
55191;BME280;41070;50.360;18.742;2023-02-13T13:53:12;100497.59;;;4.18;100.00
55191;BME280;41070;50.360;18.742;2023-02-13T13:58:38;100502.35;;;4.10;100.00
55191;BME280;41070;50.360;18.742;2023-02-13T14:03:42;100503.59;;;4.08;100.00
55191;BME280;41070;50.360;18.742;2023-02-13T14:06:11;100504.69;;;4.07;100.00
55191;BME280;41070;50.360;18.742;2023-02-13T14:11:36;100505.86;;;4.07;100.00
55191;BME280;41070;50.360;18.742;2023-02-13T14:16:56;100508.81;;;3.99;100.00
55191;BME280;41070;50.360;18.742;2023-02-13T14:19:32;100509.09;;;3.94;100.00
55191;BME280;41070;50.360;18.742;2023-02-13T14:24:52;100514.78;;;3.85;100.00
55191;BME280;41070;50.360;18.742;2023-02-13T14:27:21;100513.48;;;3.83;100.00
55191;BME280;41070;50.360;18.742;2023-02-13T14:30:29;100510.61;;;3.81;100.00
55191;BME280;41070;50.360;18.742;2023-02-13T14:33:00;100505.73;;;3.80;100.00
55191;BME280;41070;50.360;18.742;2023-02-13T14:35:29;100507.30;;;3.78;100.00
55191;BME280;41070;50.360;18.742;2023-02-13T14:37:59;100501.73;;;3.78;100.00
55191;BME280;41070;50.360;18.742;2023-02-13T14:40:50;100492.41;;;3.78;100.00
55191;BME280;41070;50.360;18.742;2023-02-13T14:43:44;100487.18;;;3.73;100.00
55191;BME280;41070;50.360;18.742;2023-02-13T14:49:19;100492.33;;;3.68;100.00
55191;BME280;41070;50.360;18.742;2023-02-13T14:51:50;100492.98;;;3.65;100.00
55191;BME280;41070;50.360;18.742;2023-02-13T14:54:24;100486.38;;;3.62;100.00
55191;BME280;41070;50.360;18.742;2023-02-13T14:56:53;100479.86;;;3.61;100.00
55191;BME280;41070;50.360;18.742;2023-02-13T14:59:28;100480.17;;;3.60;100.00
55191;BME280;41070;50.360;18.742;2023-02-13T15:04:58;100479.77;;;3.63;100.00
55191;BME280;41070;50.360;18.742;2023-02-13T15:07:29;100478.48;;;3.64;100.00
55191;BME280;41070;50.360;18.742;2023-02-13T15:12:34;100474.01;;;3.58;100.00
55191;BME280;41070;50.360;18.742;2023-02-13T15:15:21;100474.56;;;3.55;100.00
55191;BME280;41070;50.360;18.742;2023-02-13T15:18:30;100482.75;;;3.54;100.00
55191;BME280;41070;50.360;18.742;2023-02-13T15:21:00;100473.04;;;3.51;100.00
55191;BME280;41070;50.360;18.742;2023-02-13T15:23:29;100473.00;;;3.48;100.00
55191;BME280;41070;50.360;18.742;2023-02-13T15:26:04;100473.34;;;3.46;100.00
55191;BME280;41070;50.360;18.742;2023-02-13T15:28:32;100475.34;;;3.38;100.00
55191;BME280;41070;50.360;18.742;2023-02-13T15:31:05;100489.30;;;3.27;100.00
55191;BME280;41070;50.360;18.742;2023-02-13T15:33:46;100486.33;;;3.17;100.00
55191;BME280;41070;50.360;18.742;2023-02-13T15:36:22;100482.74;;;3.07;100.00
55191;BME280;41070;50.360;18.742;2023-02-13T15:39:01;100479.08;;;2.97;100.00
55191;BME280;41070;50.360;18.742;2023-02-13T15:41:36;100477.04;;;2.93;100.00
55191;BME280;41070;50.360;18.742;2023-02-13T15:44:04;100473.65;;;2.90;100.00